Time;durP1;ratioP1;P1;durP2;ratioP2;P2;SDS_P1;SDS_P2;PMS_P1;PMS_P2;Temp;Humidity;BMP_temperature;BMP_pressure;BME280_temperature;BME280_humidity;BME280_pressure;Samples;Min_cycle;Max_cycle;Signal;HPM_P1;HPM_P2
2022/11/11 00:01:17;;;;;;;6.97;2.30;;;;;;;8.48;100.00;100840.88;10590722;28;20536;-73
2022/11/11 00:06:38;;;;;;;6.05;2.67;;;;;;;8.59;100.00;100852.72;10614731;27;20043;-73
2022/11/11 00:11:58;;;;;;;5.75;2.05;;;;;;;8.54;100.00;100849.97;10601094;28;20552;-73
2022/11/11 00:28:41;;;;;;;4.13;2.15;;;;;;;8.65;100.00;100830.59;10606133;28;20066;-73
2022/11/11 00:34:02;;;;;;;2.72;1.85;;;;;;;8.65;100.00;100833.34;10613520;28;20035;-74
2022/11/11 00:39:23;;;;;;;6.13;2.45;;;;;;;8.66;100.00;100826.78;10610995;28;20418;-73
2022/11/11 00:44:44;;;;;;;3.58;2.10;;;;;;;8.71;100.00;100823.28;10613496;28;20048;-73
2022/11/11 00:55:48;;;;;;;4.80;2.30;;;;;;;8.70;100.00;100819.72;10581131;28;20039;-74
2022/11/11 01:01:09;;;;;;;4.53;2.22;;;;;;;8.80;100.00;100829.06;10603515;28;20040;-74
2022/11/11 01:06:31;;;;;;;6.28;2.35;;;;;;;8.73;100.00;100816.44;10596334;28;20510;-74
2022/11/11 01:11:52;;;;;;;4.00;2.70;;;;;;;8.74;100.00;100823.56;10601681;28;20505;-74
2022/11/11 01:17:13;;;;;;;4.72;2.60;;;;;;;8.75;100.00;100817.00;10611304;27;20047;-73
2022/11/11 01:22:34;;;;;;;4.20;2.47;;;;;;;8.70;100.00;100822.44;10581991;28;20043;-75
2022/11/11 01:27:55;;;;;;;4.22;2.17;;;;;;;8.76;100.00;100821.38;10611908;28;20051;-75
2022/11/11 01:33:16;;;;;;;4.35;2.40;;;;;;;8.74;100.00;100825.47;10598206;27;20043;-74
2022/11/11 01:38:37;;;;;;;3.90;2.95;;;;;;;8.73;100.00;100821.09;10609561;27;20042;-74
2022/11/11 01:43:59;;;;;;;4.72;2.53;;;;;;;8.70;100.00;100821.63;10629630;27;20031;-74
2022/11/11 01:49:32;;;;;;;5.95;2.70;;;;;;;8.70;100.00;100821.63;10619510;27;20035;-74
2022/11/11 01:54:59;;;;;;;3.38;2.40;;;;;;;8.66;100.00;100821.31;10612862;28;20046;-73
2022/11/11 02:00:20;;;;;;;6.97;2.90;;;;;;;8.66;100.00;100821.31;10599633;28;20533;-74
2022/11/11 02:05:46;;;;;;;4.78;2.42;;;;;;;8.63;100.00;100818.28;10600371;27;20556;-73
2022/11/11 02:14:34;;;;;;;4.22;2.25;;;;;;;8.63;100.00;100821.84;10607916;27;20035;-73
2022/11/11 02:16:56;;;;;;;4.75;2.55;;;;;;;8.58;100.00;100804.59;10563955;28;20043;-73
2022/11/11 02:22:23;;;;;;;3.63;2.17;;;;;;;8.60;100.00;100810.59;10583159;28;20502;-73
2022/11/11 02:27:48;;;;;;;4.00;2.30;;;;;;;8.59;100.00;100814.44;10591339;28;20055;-73
2022/11/11 02:33:10;;;;;;;4.32;2.35;;;;;;;8.60;100.00;100810.59;10576829;28;20042;-73
2022/11/11 02:38:30;;;;;;;4.75;2.40;;;;;;;8.66;100.00;100809.53;10607419;28;20035;-73
2022/11/11 02:43:51;;;;;;;3.72;2.55;;;;;;;8.62;100.00;100812.00;10599415;28;20039;-73
2022/11/11 02:49:12;;;;;;;3.05;2.15;;;;;;;8.61;100.00;100804.88;10586000;28;20391;-73
2022/11/11 02:54:33;;;;;;;3.97;2.38;;;;;;;8.59;100.00;100792.56;10581673;28;20032;-73
2022/11/11 02:59:53;;;;;;;3.67;2.35;;;;;;;8.66;100.00;100791.22;10588121;28;20043;-73
2022/11/11 03:05:15;;;;;;;1.95;1.38;;;;;;;8.64;100.00;100796.13;10591585;28;20040;-74
2022/11/11 03:10:35;;;;;;;3.45;2.13;;;;;;;8.59;100.00;100796.09;10584841;28;20040;-74
2022/11/11 03:16:00;;;;;;;2.90;2.10;;;;;;;8.63;100.00;100797.22;10593195;28;20039;-73
2022/11/11 03:21:21;;;;;;;3.55;2.13;;;;;;;8.60;100.00;100800.50;10593184;28;20051;-74
2022/11/11 03:26:41;;;;;;;5.03;2.20;;;;;;;8.62;99.88;100794.75;10608828;28;20044;-74
2022/11/11 03:32:01;;;;;;;4.05;2.33;;;;;;;8.64;99.92;100796.13;10573716;28;20048;-74
2022/11/11 03:43:09;;;;;;;4.95;2.78;;;;;;;8.68;99.25;100788.25;10601887;28;20047;-73
2022/11/11 03:48:34;;;;;;;4.22;2.92;;;;;;;8.71;99.58;100796.75;10613138;27;20417;-74
2022/11/11 03:53:55;;;;;;;5.47;3.45;;;;;;;8.68;99.62;100791.81;10617191;27;20031;-73
2022/11/11 03:59:19;;;;;;;7.43;3.70;;;;;;;8.66;100.00;100785.75;10616502;28;20047;-74
2022/11/11 04:10:25;;;;;;;6.65;3.40;;;;;;;8.66;100.00;100788.47;10601924;27;20074;-73
2022/11/11 04:16:05;;;;;;;6.55;3.17;;;;;;;8.68;99.81;100785.50;10582011;27;20409;-74
2022/11/11 04:21:44;;;;;;;5.75;2.95;;;;;;;8.65;99.53;100786.00;10595579;27;20428;-76
2022/11/11 04:27:10;;;;;;;6.60;2.80;;;;;;;8.64;99.86;100793.41;10582770;28;20461;-76
2022/11/11 04:32:34;;;;;;;6.03;3.43;;;;;;;8.67;99.30;100789.31;10585303;28;20055;-76
2022/11/11 04:41:02;;;;;;;5.90;3.22;;;;;;;8.66;99.90;100777.53;10592167;27;20480;-76
2022/11/11 04:45:26;;;;;;;4.88;2.90;;;;;;;8.61;100.00;100774.78;10599033;27;20035;-76
2022/11/11 04:49:17;;;;;;;4.50;3.00;;;;;;;8.61;99.55;100774.78;10587036;28;20043;-75
2022/11/11 04:56:46;;;;;;;6.00;3.00;;;;;;;8.55;99.86;100773.13;10588213;28;20039;-76
2022/11/11 05:00:18;;;;;;;6.82;3.13;;;;;;;8.52;99.60;100751.78;10611713;28;20043;-75
2022/11/11 05:11:30;;;;;;;5.05;2.90;;;;;;;8.42;97.91;100738.84;10622517;27;20031;-76
2022/11/11 05:22:38;;;;;;;2.65;1.98;;;;;;;8.41;96.83;100715.31;10601399;28;20513;-77
2022/11/11 05:28:00;;;;;;;4.60;2.20;;;;;;;8.39;95.55;100712.03;10611903;27;20048;-77
2022/11/11 05:33:21;;;;;;;4.15;1.85;;;;;;;8.41;94.98;100698.09;10598006;28;20039;-77
2022/11/11 05:38:41;;;;;;;2.97;1.85;;;;;;;8.42;94.78;100684.16;10570922;28;20417;-76
2022/11/11 05:44:02;;;;;;;3.38;2.30;;;;;;;8.37;93.68;100675.13;10555411;28;20410;-75
2022/11/11 05:49:23;;;;;;;3.20;1.83;;;;;;;8.36;92.88;100662.53;10590259;28;20050;-76
2022/11/11 05:54:45;;;;;;;3.47;1.70;;;;;;;8.34;92.52;100642.84;10598054;28;20042;-76
2022/11/11 06:00:10;;;;;;;2.67;1.70;;;;;;;8.18;91.47;100665.69;10580730;28;20044;-76
2022/11/11 06:05:30;;;;;;;2.50;1.23;;;;;;;8.10;91.22;100669.72;10596135;28;20082;-76
2022/11/11 06:10:52;;;;;;;3.17;1.30;;;;;;;8.05;90.09;100666.97;10606085;28;20066;-75
2022/11/11 06:16:13;;;;;;;2.85;1.20;;;;;;;7.97;90.11;100662.81;10610082;28;20524;-75
2022/11/11 06:21:55;;;;;;;3.42;1.40;;;;;;;8.02;90.76;100656.56;10594643;28;20035;-75
2022/11/11 06:27:14;;;;;;;4.82;1.55;;;;;;;8.05;91.23;100636.91;10610247;28;20047;-75
2022/11/11 06:32:39;;;;;;;3.40;2.22;;;;;;;8.00;91.29;100661.47;10611077;28;20033;-75
2022/11/11 06:38:06;;;;;;;2.65;1.50;;;;;;;8.00;91.80;100658.75;10611102;28;20039;-76
2022/11/11 06:43:33;;;;;;;5.50;1.45;;;;;;;7.96;91.29;100641.22;10594312;28;20046;-76
2022/11/11 06:48:53;;;;;;;3.70;1.75;;;;;;;7.94;92.12;100627.81;10595862;28;20043;-75
2022/11/11 06:54:14;;;;;;;3.35;1.50;;;;;;;7.95;92.38;100614.97;10610206;28;20421;-75
2022/11/11 06:59:37;;;;;;;2.22;1.20;;;;;;;7.90;91.23;100618.50;10609208;28;20039;-76
2022/11/11 07:04:59;;;;;;;3.65;1.45;;;;;;;7.96;90.74;100636.56;10610656;28;20066;-76
2022/11/11 07:10:19;;;;;;;3.42;1.40;;;;;;;7.98;90.53;100648.06;10602391;27;20059;-75
2022/11/11 07:15:42;;;;;;;2.38;1.05;;;;;;;8.03;90.03;100631.72;10600114;28;20035;-76
2022/11/11 07:21:03;;;;;;;5.97;1.35;;;;;;;8.11;90.32;100627.63;10592966;28;20043;-76
2022/11/11 07:26:23;;;;;;;6.20;1.23;;;;;;;8.13;89.41;100620.00;10556807;28;20051;-75
2022/11/11 07:31:44;;;;;;;3.33;1.40;;;;;;;8.11;89.45;100606.59;10616752;27;20417;-77
2022/11/11 07:37:05;;;;;;;2.50;1.15;;;;;;;8.04;89.54;100578.69;10617850;28;20043;-76
2022/11/11 07:42:25;;;;;;;2.08;1.08;;;;;;;8.08;88.83;100574.34;10600146;28;20040;-76
2022/11/11 07:47:49;;;;;;;5.75;1.10;;;;;;;8.11;89.22;100562.88;10617620;27;20042;-76
2022/11/11 07:53:12;;;;;;;2.65;1.08;;;;;;;8.11;88.95;100570.25;10662592;27;20054;-75
2022/11/11 07:58:33;;;;;;;4.03;1.20;;;;;;;8.11;88.61;100573.81;10659325;27;20504;-75
2022/11/11 08:03:54;;;;;;;4.35;1.80;;;;;;;8.10;88.95;100558.50;10602036;27;20497;-76
2022/11/11 08:09:15;;;;;;;5.03;1.60;;;;;;;8.15;89.28;100519.41;10615165;28;20056;-76
2022/11/11 08:14:35;;;;;;;4.18;1.30;;;;;;;8.14;89.21;100518.59;10597381;28;20062;-75
2022/11/11 08:19:56;;;;;;;2.67;1.35;;;;;;;8.13;88.99;100516.97;10631990;27;20035;-75
2022/11/11 08:25:17;;;;;;;3.47;1.35;;;;;;;8.15;89.64;100514.78;10635352;27;20048;-76
2022/11/11 08:30:38;;;;;;;3.45;1.48;;;;;;;8.20;89.57;100499.50;10615144;27;20050;-76
2022/11/11 08:35:59;;;;;;;4.05;1.27;;;;;;;8.18;89.54;100491.56;10596653;27;20043;-76
2022/11/11 08:41:21;;;;;;;4.18;1.20;;;;;;;8.17;89.40;100481.75;10573466;28;20043;-76
2022/11/11 08:46:42;;;;;;;3.38;1.30;;;;;;;8.19;90.10;100465.06;10599125;27;20043;-75
2022/11/11 08:52:02;;;;;;;5.18;1.40;;;;;;;8.15;90.50;100475.69;10619288;27;20501;-76
2022/11/11 08:57:23;;;;;;;4.10;1.20;;;;;;;8.15;91.71;100473.78;10615192;28;20055;-76
2022/11/11 09:02:43;;;;;;;2.40;0.88;;;;;;;8.07;93.00;100468.84;10614780;28;20565;-76
2022/11/11 09:08:06;;;;;;;1.48;0.80;;;;;;;7.97;93.92;100468.81;10612810;28;20048;-77
2022/11/11 09:13:27;;;;;;;4.30;1.48;;;;;;;7.89;95.94;100443.94;10580871;28;20063;-77
2022/11/11 09:18:48;;;;;;;2.42;1.00;;;;;;;7.83;96.11;100446.66;10553851;28;20413;-75
2022/11/11 09:24:09;;;;;;;4.15;1.55;;;;;;;7.79;96.45;100429.13;10612895;28;20054;-76
2022/11/11 09:29:30;;;;;;;2.05;0.88;;;;;;;7.73;97.38;100415.72;10612448;28;20050;-76
2022/11/11 09:34:51;;;;;;;1.70;0.70;;;;;;;7.76;97.92;100412.47;10599405;28;20505;-78
2022/11/11 09:40:17;;;;;;;1.40;0.75;;;;;;;7.75;98.68;100399.91;10572506;28;20038;-77
2022/11/11 09:46:00;;;;;;;1.45;0.98;;;;;;;7.73;98.57;100386.50;10578420;28;20048;-76
2022/11/11 09:51:32;;;;;;;1.75;0.95;;;;;;;7.76;99.06;100375.03;10609673;27;20521;-76
2022/11/11 09:56:53;;;;;;;1.83;1.00;;;;;;;7.74;99.93;100357.28;10607700;28;20039;-76
2022/11/11 10:02:32;;;;;;;1.10;0.70;;;;;;;7.73;100.00;100342.81;10607987;28;20047;-75
2022/11/11 10:07:55;;;;;;;2.15;1.02;;;;;;;7.79;100.00;100324.50;10599928;28;20055;-76
2022/11/11 10:13:16;;;;;;;1.10;0.70;;;;;;;7.77;100.00;100318.50;10590355;28;20044;-75
2022/11/11 10:18:57;;;;;;;0.60;0.50;;;;;;;7.82;100.00;100311.16;10593179;28;20043;-74
2022/11/11 10:24:38;;;;;;;1.73;0.90;;;;;;;7.85;100.00;100288.75;10607517;28;20039;-74
2022/11/11 10:30:06;;;;;;;5.13;1.35;;;;;;;7.93;100.00;100295.59;10574724;28;20039;-75
2022/11/11 10:35:28;;;;;;;;;;;;;;;7.98;100.00;100289.28;10580623;28;20046;-74
2022/11/11 10:40:52;;;;;;;3.53;1.17;;;;;;;8.03;100.00;100279.22;10603082;28;19920;-74
2022/11/11 10:46:22;;;;;;;1.35;0.70;;;;;;;8.06;100.00;100284.13;10614750;27;20028;-75
2022/11/11 10:51:52;;;;;;;2.13;1.00;;;;;;;8.13;100.00;100271.00;10625160;27;20051;-75
2022/11/11 10:57:20;;;;;;;0.77;0.60;;;;;;;8.13;100.00;100246.38;10602156;27;20050;-76
2022/11/11 11:02:56;;;;;;;2.70;0.60;;;;;;;8.17;100.00;100252.16;10616389;27;20039;-74
2022/11/11 11:08:26;;;;;;;0.20;0.17;;;;;;;8.21;100.00;100233.28;10619502;27;20803;-74
2022/11/11 11:13:52;;;;;;;0.88;0.60;;;;;;;8.25;100.00;100223.44;10589239;28;20032;-75
2022/11/11 11:19:14;;;;;;;2.70;0.85;;;;;;;8.26;100.00;100214.94;10599931;28;20039;-75
2022/11/11 11:24:36;;;;;;;0.28;0.28;;;;;;;8.31;100.00;100223.13;10617792;28;20056;-76
2022/11/11 11:30:18;;;;;;;0.95;0.75;;;;;;;8.38;100.00;100211.97;10599511;28;20043;-75
2022/11/11 11:35:42;;;;;;;0.80;0.80;;;;;;;8.40;100.00;100212.50;10618212;28;20042;-76
2022/11/11 11:41:03;;;;;;;1.90;0.77;;;;;;;8.39;100.00;100211.69;10603003;28;20066;-78
2022/11/11 11:46:29;;;;;;;2.42;1.00;;;;;;;8.36;100.00;100190.38;10598615;28;20070;-76
2022/11/11 11:51:53;;;;;;;0.77;0.63;;;;;;;8.39;100.00;100165.22;10582599;28;20557;-77
2022/11/11 11:57:49;;;;;;;1.35;0.55;;;;;;;8.44;100.00;100169.84;10602904;28;20199;-75
2022/11/11 12:03:40;;;;;;;2.55;0.98;;;;;;;8.44;100.00;100161.63;10596992;28;20044;-74
2022/11/11 12:09:38;;;;;;;0.80;0.57;;;;;;;8.44;100.00;100167.91;10607624;28;20048;-75
2022/11/11 12:15:26;;;;;;;1.45;0.80;;;;;;;8.48;100.00;100151.75;10615691;28;20442;-75
2022/11/11 12:20:54;;;;;;;1.25;0.85;;;;;;;8.52;100.00;100139.19;10600707;28;20036;-75
2022/11/11 12:26:21;;;;;;;1.23;0.93;;;;;;;8.54;100.00;100117.03;10583828;28;20066;-74
2022/11/11 12:31:55;;;;;;;;;;;;;;;8.56;100.00;100109.38;10587452;28;20040;-74
2022/11/11 12:37:26;;;;;;;2.03;0.80;;;;;;;8.61;100.00;100088.28;10597523;28;19930;-75
2022/11/11 12:43:05;;;;;;;3.45;1.20;;;;;;;8.59;100.00;100065.84;10610421;27;20036;-75
2022/11/11 12:48:35;;;;;;;0.75;0.73;;;;;;;8.54;100.00;100076.84;10611860;27;20533;-75
2022/11/11 12:54:27;;;;;;;1.52;0.98;;;;;;;8.53;100.00;100067.00;10591078;28;20048;-75
2022/11/11 13:00:10;;;;;;;1.25;0.70;;;;;;;8.59;100.00;100065.03;10586825;28;20393;-75
2022/11/11 13:05:53;;;;;;;1.05;0.90;;;;;;;8.63;100.00;100066.91;10572859;28;20040;-77
2022/11/11 13:11:39;;;;;;;1.10;0.90;;;;;;;8.66;100.00;100081.94;10597349;27;20043;-79
2022/11/11 13:17:00;;;;;;;1.05;0.90;;;;;;;8.69;100.00;100081.41;10571290;28;20517;-73
2022/11/11 13:22:25;;;;;;;0.90;0.90;;;;;;;8.73;100.00;100072.34;10613462;27;20050;-74
2022/11/11 13:27:54;;;;;;;1.50;0.85;;;;;;;8.72;100.00;100069.91;10562276;28;20062;-75
2022/11/11 13:33:17;;;;;;;3.30;0.85;;;;;;;8.75;100.00;100074.78;10580692;28;20227;-75
2022/11/11 13:38:46;;;;;;;0.82;0.70;;;;;;;8.77;100.00;100070.66;10578583;27;20114;-76
2022/11/11 13:44:08;;;;;;;0.90;0.65;;;;;;;8.83;100.00;100052.31;10585062;28;20042;-77
2022/11/11 13:50:00;;;;;;;3.55;1.33;;;;;;;8.87;100.00;100049.84;10592081;27;20058;-74
2022/11/11 13:55:31;;;;;;;3.60;1.35;;;;;;;8.89;100.00;100050.38;10570432;28;20051;-74
2022/11/11 14:01:00;;;;;;;0.40;0.40;;;;;;;8.96;100.00;100048.94;10594632;28;20405;-76
2022/11/11 14:06:27;;;;;;;9.23;4.13;;;;;;;8.99;100.00;100051.09;10580238;28;20039;-77
2022/11/11 14:11:48;;;;;;;0.32;0.32;;;;;;;9.05;100.00;100062.84;10568427;28;20520;-76
2022/11/11 14:17:13;;;;;;;1.40;0.65;;;;;;;9.06;100.00;100046.13;10601999;28;20066;-76
2022/11/11 14:22:34;;;;;;;1.35;0.80;;;;;;;9.09;100.00;100039.25;10593629;27;20038;-76
2022/11/11 14:27:55;;;;;;;1.65;1.00;;;;;;;9.13;100.00;100062.22;10572797;27;20049;-74
2022/11/11 14:33:53;;;;;;;3.13;1.15;;;;;;;9.17;100.00;100060.53;10610486;28;20054;-75
2022/11/11 14:39:52;;;;;;;2.40;0.70;;;;;;;9.17;100.00;100056.97;10596730;28;20043;-73
2022/11/11 14:45:22;;;;;;;1.30;0.70;;;;;;;9.17;100.00;100070.66;10592441;28;20035;-74
2022/11/11 14:50:44;;;;;;;2.80;1.45;;;;;;;9.16;100.00;100064.38;10606846;28;20047;-74
2022/11/11 14:56:14;;;;;;;1.02;0.90;;;;;;;9.18;100.00;100070.38;10611206;28;20039;-73
2022/11/11 15:01:35;;;;;;;3.58;0.90;;;;;;;9.20;100.00;100060.00;10591256;28;20296;-74
2022/11/11 15:06:58;;;;;;;1.88;0.60;;;;;;;9.21;100.00;100075.31;10586961;28;20149;-77
2022/11/11 15:12:29;;;;;;;1.25;0.57;;;;;;;9.24;100.00;100073.91;10612100;28;20410;-78
2022/11/11 15:18:26;;;;;;;1.05;0.60;;;;;;;9.27;100.00;100087.03;10567225;28;20081;-79
2022/11/11 15:24:12;;;;;;;0.55;0.50;;;;;;;9.30;100.00;100079.06;10613557;28;20058;-78
2022/11/11 15:30:02;;;;;;;0.60;0.60;;;;;;;9.34;100.00;100088.31;10574119;28;20513;-74
2022/11/11 15:35:24;;;;;;;1.20;0.70;;;;;;;9.39;100.00;100083.94;10613136;27;20528;-73
2022/11/11 15:40:50;;;;;;;0.40;0.40;;;;;;;9.44;100.00;100098.38;10576585;28;20043;-73
2022/11/11 15:46:26;;;;;;;0.60;0.60;;;;;;;9.50;100.00;100096.41;10630711;27;20040;-73
2022/11/11 15:51:55;;;;;;;1.95;0.30;;;;;;;9.51;100.00;100081.59;10630682;27;20040;-74
2022/11/11 15:57:30;;;;;;;0.30;0.30;;;;;;;9.51;100.00;100092.56;10617283;28;20532;-73
2022/11/11 16:02:53;;;;;;;1.13;0.50;;;;;;;9.50;100.00;100078.06;10616987;28;20062;-73
2022/11/11 16:08:19;;;;;;;1.02;0.47;;;;;;;9.50;100.00;100072.56;10611268;28;20032;-73
2022/11/11 16:13:56;;;;;;;0.50;0.40;;;;;;;9.52;100.00;100055.84;10616627;28;20040;-73
2022/11/11 16:19:36;;;;;;;0.82;0.50;;;;;;;9.49;100.00;100070.13;10615261;28;20050;-72
2022/11/11 16:24:57;;;;;;;0.77;0.55;;;;;;;9.47;100.00;100072.34;10612154;28;20528;-73
2022/11/11 16:30:21;;;;;;;1.30;0.60;;;;;;;9.46;100.00;100081.66;10623839;27;20044;-72
2022/11/11 16:35:42;;;;;;;0.60;0.60;;;;;;;9.48;100.00;100099.44;10628833;27;20035;-73
2022/11/11 16:41:04;;;;;;;0.63;0.63;;;;;;;9.46;100.00;100100.84;10612999;28;20043;-73
2022/11/11 16:46:34;;;;;;;0.60;0.60;;;;;;;9.45;100.00;100093.72;10555371;28;20044;-73
2022/11/11 16:51:58;;;;;;;2.22;0.70;;;;;;;9.42;100.00;100075.94;10571127;28;20043;-73
2022/11/11 16:57:24;;;;;;;1.25;0.65;;;;;;;9.42;100.00;100075.94;10585780;28;20047;-72
2022/11/11 17:03:08;;;;;;;0.65;0.65;;;;;;;9.43;100.00;100090.47;10561305;28;20036;-71
2022/11/11 17:08:30;;;;;;;2.42;0.93;;;;;;;9.43;100.00;100096.75;10556592;28;20062;-73
2022/11/11 17:13:55;;;;;;;2.28;0.82;;;;;;;9.42;100.00;100118.94;10571754;28;20044;-73
2022/11/11 17:19:16;;;;;;;2.95;0.95;;;;;;;9.42;100.00;100129.91;10584807;28;20048;-73
2022/11/11 17:24:37;;;;;;;3.50;1.30;;;;;;;9.39;100.00;100133.22;10555347;28;20036;-73
2022/11/11 17:29:59;;;;;;;4.80;2.17;;;;;;;9.32;100.00;100117.91;10584673;28;20237;-73
2022/11/11 17:35:19;;;;;;;3.03;1.42;;;;;;;9.28;100.00;100122.31;10576641;28;20035;-72
2022/11/11 17:40:47;;;;;;;3.10;1.42;;;;;;;9.22;100.00;100133.63;10612592;28;20422;-72
2022/11/11 17:46:07;;;;;;;3.20;1.47;;;;;;;9.19;100.00;100142.38;10612256;28;20413;-73
2022/11/11 17:51:28;;;;;;;5.97;2.08;;;;;;;9.13;100.00;100163.50;10611848;28;20497;-73
2022/11/11 17:56:50;;;;;;;3.08;1.60;;;;;;;9.05;100.00;100164.91;10579712;28;20032;-73
2022/11/11 18:02:11;;;;;;;5.20;1.83;;;;;;;8.98;100.00;100167.13;10554554;28;20509;-72
2022/11/11 18:07:32;;;;;;;5.65;2.00;;;;;;;8.88;100.00;100183.63;10554313;28;20039;-73
2022/11/11 18:12:53;;;;;;;6.50;2.05;;;;;;;8.80;100.00;100177.91;10569883;28;20047;-73
2022/11/11 18:18:14;;;;;;;3.40;1.65;;;;;;;8.73;100.00;100181.75;10582375;28;20426;-73
2022/11/11 18:23:36;;;;;;;7.15;1.92;;;;;;;8.69;100.00;100179.88;10593354;28;20502;-73
2022/11/11 18:28:58;;;;;;;4.85;1.80;;;;;;;8.68;100.00;100179.06;10610620;28;20058;-73
2022/11/11 18:34:19;;;;;;;6.65;2.10;;;;;;;8.65;100.00;100174.13;10592985;28;20035;-73
2022/11/11 18:39:40;;;;;;;5.88;1.60;;;;;;;8.63;100.00;100165.38;10591111;28;20062;-73
2022/11/11 18:45:00;;;;;;;5.43;1.80;;;;;;;8.59;100.00;100168.97;10609909;28;20039;-73
2022/11/11 18:50:21;;;;;;;5.07;1.60;;;;;;;8.55;100.00;100167.91;10609657;28;20062;-73
2022/11/11 18:55:41;;;;;;;4.43;1.45;;;;;;;8.53;100.00;100164.63;10603415;28;20047;-73
2022/11/11 19:01:16;;;;;;;3.40;1.52;;;;;;;8.58;100.00;100175.53;10609117;28;20050;-73
2022/11/11 19:06:38;;;;;;;4.70;1.40;;;;;;;8.58;100.00;100159.13;10619165;28;20074;-74
2022/11/11 19:11:59;;;;;;;9.25;2.25;;;;;;;8.57;100.00;100166.50;10587205;27;20089;-73
2022/11/11 19:17:19;;;;;;;3.90;1.45;;;;;;;8.57;100.00;100177.44;10640792;27;20043;-73
2022/11/11 19:22:44;;;;;;;4.30;2.00;;;;;;;8.60;100.00;100170.59;10607614;27;20093;-73
2022/11/11 19:28:09;;;;;;;6.65;1.80;;;;;;;8.61;100.00;100189.47;10586496;28;20043;-73
2022/11/11 19:33:32;;;;;;;8.63;1.98;;;;;;;8.62;100.00;100215.72;10620315;27;20039;-72
2022/11/11 19:38:54;;;;;;;6.13;2.60;;;;;;;8.64;100.00;100259.19;10601119;27;20035;-73
2022/11/11 19:44:16;;;;;;;12.02;3.05;;;;;;;8.60;100.00;100245.25;10586707;28;20042;-73
2022/11/11 19:49:36;;;;;;;7.45;2.40;;;;;;;8.59;100.00;100260.03;10588219;28;20036;-73
2022/11/11 19:54:58;;;;;;;8.65;2.33;;;;;;;8.58;100.00;100258.41;10595059;28;20406;-72
2022/11/11 20:00:26;;;;;;;14.30;4.03;;;;;;;8.60;100.00;100253.47;10602239;28;20031;-72
2022/11/11 20:05:47;;;;;;;22.05;5.85;;;;;;;8.55;100.00;100228.88;10607549;28;20639;-72
2022/11/11 20:11:08;;;;;;;5.65;1.80;;;;;;;8.55;100.00;100217.94;10580713;28;20040;-73
2022/11/11 20:16:29;;;;;;;9.20;3.72;;;;;;;8.57;100.00;100207.53;10608348;27;20501;-73
2022/11/11 20:21:51;;;;;;;21.23;6.07;;;;;;;8.57;100.00;100232.16;10601485;27;20032;-73
2022/11/11 20:27:12;;;;;;;8.20;2.70;;;;;;;8.58;100.00;100239.25;10603424;28;20441;-72
2022/11/11 20:32:33;;;;;;;11.52;4.03;;;;;;;8.59;100.00;100245.53;10597349;28;20409;-72
2022/11/11 20:37:54;;;;;;;9.02;2.60;;;;;;;8.61;100.00;100257.03;10602371;28;20509;-72
2022/11/11 20:43:15;;;;;;;9.10;3.05;;;;;;;8.63;100.00;100257.56;10613488;28;20643;-72
2022/11/11 20:48:38;;;;;;;5.15;1.70;;;;;;;8.68;100.00;100272.06;10613849;28;20053;-73
2022/11/11 20:54:02;;;;;;;9.73;2.40;;;;;;;8.74;100.00;100257.25;10602210;27;20062;-74
2022/11/11 20:59:23;;;;;;;7.05;2.33;;;;;;;8.77;100.00;100243.03;10617197;27;20528;-73
2022/11/11 21:04:48;;;;;;;8.05;2.30;;;;;;;8.81;100.00;100262.44;10600855;28;20046;-73
2022/11/11 21:10:15;;;;;;;6.20;2.10;;;;;;;8.83;100.00;100256.66;10610504;27;20112;-73
2022/11/11 21:15:37;;;;;;;4.13;2.10;;;;;;;8.84;100.00;100278.28;10603031;28;20047;-72
2022/11/11 21:21:09;;;;;;;6.00;2.08;;;;;;;8.83;100.00;100270.34;10603654;28;20039;-73
2022/11/11 21:26:31;;;;;;;3.90;1.85;;;;;;;8.80;100.00;100252.59;10596314;28;20075;-74
2022/11/11 21:31:52;;;;;;;5.80;1.80;;;;;;;8.79;100.00;100261.88;10605963;28;20047;-73
2022/11/11 21:37:13;;;;;;;4.20;1.60;;;;;;;8.84;100.00;100261.88;10603194;28;20074;-72
2022/11/11 21:42:34;;;;;;;5.85;2.28;;;;;;;8.85;100.00;100292.78;10603574;28;20043;-71
2022/11/11 21:47:56;;;;;;;6.80;1.70;;;;;;;8.85;100.00;100300.97;10604234;28;20078;-73
2022/11/11 21:53:19;;;;;;;6.47;1.98;;;;;;;8.81;100.00;100291.69;10602268;28;20039;-73
2022/11/11 21:58:43;;;;;;;9.10;1.85;;;;;;;8.82;100.00;100301.53;10579557;28;20056;-73
2022/11/11 22:04:10;;;;;;;7.32;1.85;;;;;;;8.81;100.00;100281.56;10599956;28;20383;-74
2022/11/11 22:09:31;;;;;;;7.72;1.98;;;;;;;8.80;100.00;100295.53;10591350;28;20413;-73
2022/11/11 22:14:53;;;;;;;6.03;1.58;;;;;;;8.81;100.00;100276.09;10605290;28;20047;-73
2022/11/11 22:20:18;;;;;;;6.75;1.88;;;;;;;8.83;100.00;100293.06;10596290;28;20051;-73
2022/11/11 22:25:39;;;;;;;3.75;1.42;;;;;;;8.85;100.00;100309.19;10599646;28;20062;-73
2022/11/11 22:31:04;;;;;;;5.28;1.77;;;;;;;8.88;100.00;100293.06;10605522;28;20062;-74
2022/11/11 22:36:32;;;;;;;2.47;1.30;;;;;;;8.90;100.00;100273.63;10598449;28;20500;-73
2022/11/11 22:41:53;;;;;;;;;;;;;;;8.97;100.00;100254.97;10597775;28;20050;-73
2022/11/11 22:47:13;;;;;;;6.50;2.00;;;;;;;8.98;100.00;100251.97;10607727;28;20290;-73
2022/11/11 22:52:34;;;;;;;4.93;1.92;;;;;;;9.01;100.00;100240.44;10603883;28;20051;-74
2022/11/11 22:57:55;;;;;;;5.68;1.80;;;;;;;9.03;100.00;100229.25;10607372;28;20047;-73
2022/11/11 23:03:16;;;;;;;5.03;1.42;;;;;;;9.05;100.00;100222.38;10613463;28;20035;-73
2022/11/11 23:08:42;;;;;;;8.57;1.67;;;;;;;9.11;100.00;100189.50;10604687;28;20043;-73
2022/11/11 23:14:06;;;;;;;5.05;1.70;;;;;;;9.16;100.00;100189.47;10600499;28;20046;-73
2022/11/11 23:19:28;;;;;;;6.25;1.70;;;;;;;9.19;100.00;100191.66;10591360;28;20074;-74
2022/11/11 23:24:53;;;;;;;7.10;1.48;;;;;;;9.25;100.00;100188.63;10600159;28;20052;-73
2022/11/11 23:30:19;;;;;;;9.00;1.63;;;;;;;9.28;100.00;100184.47;10602722;28;20043;-74
2022/11/11 23:35:39;;;;;;;6.68;2.15;;;;;;;9.34;100.00;100188.81;10611005;27;20059;-74
2022/11/11 23:41:04;;;;;;;9.20;2.17;;;;;;;9.37;100.00;100188.25;10600115;28;20044;-74
2022/11/11 23:46:25;;;;;;;6.80;1.95;;;;;;;9.41;100.00;100194.81;10597511;28;20658;-74
2022/11/11 23:51:50;;;;;;;9.02;2.72;;;;;;;9.46;100.00;100167.38;10607214;27;20421;-75
2022/11/11 23:57:14;;;;;;;6.32;1.40;;;;;;;9.53;100.00;100178.81;10604781;28;20047;-73
